sensor_id;sensor_type;location;lat;lon;timestamp;P1;durP1;ratioP1;P2;durP2;ratioP2
57551;SDS011;43379;48.160;14.036;2023-05-10T00:02:06;8.87;;;8.07;;
57551;SDS011;43379;48.160;14.036;2023-05-10T00:04:32;9.70;;;8.90;;
57551;SDS011;43379;48.160;14.036;2023-05-10T00:06:58;9.83;;;9.00;;
57551;SDS011;43379;48.160;14.036;2023-05-10T00:09:23;10.40;;;9.40;;
57551;SDS011;43379;48.160;14.036;2023-05-10T00:11:49;9.23;;;8.43;;
57551;SDS011;43379;48.160;14.036;2023-05-10T00:14:15;9.03;;;8.30;;
57551;SDS011;43379;48.160;14.036;2023-05-10T00:16:41;9.27;;;8.50;;
57551;SDS011;43379;48.160;14.036;2023-05-10T00:19:06;8.77;;;7.93;;
57551;SDS011;43379;48.160;14.036;2023-05-10T00:21:32;8.13;;;7.33;;
57551;SDS011;43379;48.160;14.036;2023-05-10T00:23:58;8.17;;;7.30;;
57551;SDS011;43379;48.160;14.036;2023-05-10T00:26:24;8.73;;;8.07;;
57551;SDS011;43379;48.160;14.036;2023-05-10T00:28:50;8.13;;;7.43;;
57551;SDS011;43379;48.160;14.036;2023-05-10T00:31:16;8.40;;;7.60;;
57551;SDS011;43379;48.160;14.036;2023-05-10T00:33:41;7.97;;;7.23;;
57551;SDS011;43379;48.160;14.036;2023-05-10T00:36:07;10.40;;;7.90;;
57551;SDS011;43379;48.160;14.036;2023-05-10T00:38:33;7.73;;;7.10;;
57551;SDS011;43379;48.160;14.036;2023-05-10T00:40:59;8.30;;;7.60;;
57551;SDS011;43379;48.160;14.036;2023-05-10T00:43:24;7.57;;;6.87;;
57551;SDS011;43379;48.160;14.036;2023-05-10T00:45:50;7.23;;;6.70;;
57551;SDS011;43379;48.160;14.036;2023-05-10T00:48:17;6.50;;;6.00;;
57551;SDS011;43379;48.160;14.036;2023-05-10T00:50:42;6.83;;;6.13;;
57551;SDS011;43379;48.160;14.036;2023-05-10T00:53:08;7.80;;;7.10;;
57551;SDS011;43379;48.160;14.036;2023-05-10T00:55:35;7.57;;;6.97;;
57551;SDS011;43379;48.160;14.036;2023-05-10T00:58:01;7.37;;;6.73;;
57551;SDS011;43379;48.160;14.036;2023-05-10T01:00:27;8.37;;;6.90;;
57551;SDS011;43379;48.160;14.036;2023-05-10T01:02:53;7.87;;;7.10;;
57551;SDS011;43379;48.160;14.036;2023-05-10T01:05:19;7.77;;;7.03;;
57551;SDS011;43379;48.160;14.036;2023-05-10T01:07:45;7.30;;;6.70;;
57551;SDS011;43379;48.160;14.036;2023-05-10T01:10:10;7.27;;;6.67;;
57551;SDS011;43379;48.160;14.036;2023-05-10T01:12:37;7.10;;;6.60;;
57551;SDS011;43379;48.160;14.036;2023-05-10T01:15:06;6.90;;;6.40;;
57551;SDS011;43379;48.160;14.036;2023-05-10T01:17:34;7.37;;;6.73;;
57551;SDS011;43379;48.160;14.036;2023-05-10T01:20:02;7.30;;;6.60;;
57551;SDS011;43379;48.160;14.036;2023-05-10T01:36:23;7.47;;;6.77;;
57551;SDS011;43379;48.160;14.036;2023-05-10T01:41:49;8.00;;;7.10;;
57551;SDS011;43379;48.160;14.036;2023-05-10T01:47:24;8.37;;;7.63;;
57551;SDS011;43379;48.160;14.036;2023-05-10T01:50:02;7.20;;;6.60;;
57551;SDS011;43379;48.160;14.036;2023-05-10T01:52:33;8.50;;;7.70;;
57551;SDS011;43379;48.160;14.036;2023-05-10T01:55:07;7.57;;;6.87;;
57551;SDS011;43379;48.160;14.036;2023-05-10T01:57:37;7.60;;;7.00;;
57551;SDS011;43379;48.160;14.036;2023-05-10T02:00:06;7.27;;;6.57;;
57551;SDS011;43379;48.160;14.036;2023-05-10T02:02:35;8.03;;;7.43;;
57551;SDS011;43379;48.160;14.036;2023-05-10T02:05:03;7.30;;;6.70;;
57551;SDS011;43379;48.160;14.036;2023-05-10T02:07:32;8.47;;;7.70;;
57551;SDS011;43379;48.160;14.036;2023-05-10T02:10:01;7.90;;;7.30;;
57551;SDS011;43379;48.160;14.036;2023-05-10T02:12:29;8.03;;;7.37;;
57551;SDS011;43379;48.160;14.036;2023-05-10T02:15:00;7.70;;;7.10;;
57551;SDS011;43379;48.160;14.036;2023-05-10T02:17:30;9.90;;;9.00;;
57551;SDS011;43379;48.160;14.036;2023-05-10T02:19:57;10.13;;;7.93;;
57551;SDS011;43379;48.160;14.036;2023-05-10T02:22:25;8.90;;;8.10;;
57551;SDS011;43379;48.160;14.036;2023-05-10T02:24:52;8.10;;;7.40;;
57551;SDS011;43379;48.160;14.036;2023-05-10T02:27:20;8.20;;;7.50;;
57551;SDS011;43379;48.160;14.036;2023-05-10T02:29:49;8.30;;;7.60;;
57551;SDS011;43379;48.160;14.036;2023-05-10T02:32:15;8.63;;;7.83;;
57551;SDS011;43379;48.160;14.036;2023-05-10T02:34:42;8.90;;;8.00;;
57551;SDS011;43379;48.160;14.036;2023-05-10T02:37:10;8.90;;;8.00;;
57551;SDS011;43379;48.160;14.036;2023-05-10T02:39:39;8.90;;;8.13;;
57551;SDS011;43379;48.160;14.036;2023-05-10T02:42:10;8.40;;;7.70;;
57551;SDS011;43379;48.160;14.036;2023-05-10T02:44:42;8.33;;;7.53;;
57551;SDS011;43379;48.160;14.036;2023-05-10T02:47:10;9.57;;;8.70;;
57551;SDS011;43379;48.160;14.036;2023-05-10T02:49:36;9.03;;;8.13;;
57551;SDS011;43379;48.160;14.036;2023-05-10T02:52:02;9.60;;;8.70;;
57551;SDS011;43379;48.160;14.036;2023-05-10T02:54:33;8.67;;;7.97;;
57551;SDS011;43379;48.160;14.036;2023-05-10T02:57:11;9.93;;;9.07;;
57551;SDS011;43379;48.160;14.036;2023-05-10T02:59:44;9.27;;;8.50;;
57551;SDS011;43379;48.160;14.036;2023-05-10T03:02:10;10.43;;;8.63;;
57551;SDS011;43379;48.160;14.036;2023-05-10T03:04:38;8.90;;;8.13;;
57551;SDS011;43379;48.160;14.036;2023-05-10T03:07:04;10.10;;;9.20;;
57551;SDS011;43379;48.160;14.036;2023-05-10T03:09:30;10.13;;;9.23;;
57551;SDS011;43379;48.160;14.036;2023-05-10T03:12:17;10.23;;;8.27;;
57551;SDS011;43379;48.160;14.036;2023-05-10T03:20:26;9.47;;;8.57;;
57551;SDS011;43379;48.160;14.036;2023-05-10T03:23:00;10.43;;;9.53;;
57551;SDS011;43379;48.160;14.036;2023-05-10T03:25:33;11.33;;;8.40;;
57551;SDS011;43379;48.160;14.036;2023-05-10T03:27:59;10.70;;;9.80;;
57551;SDS011;43379;48.160;14.036;2023-05-10T03:30:27;10.20;;;9.30;;
57551;SDS011;43379;48.160;14.036;2023-05-10T03:32:54;10.67;;;9.77;;
57551;SDS011;43379;48.160;14.036;2023-05-10T03:35:20;10.00;;;9.00;;
57551;SDS011;43379;48.160;14.036;2023-05-10T03:37:45;9.70;;;8.90;;
57551;SDS011;43379;48.160;14.036;2023-05-10T03:40:11;10.33;;;9.43;;
57551;SDS011;43379;48.160;14.036;2023-05-10T03:42:38;10.50;;;9.07;;
57551;SDS011;43379;48.160;14.036;2023-05-10T03:45:04;9.97;;;9.07;;
57551;SDS011;43379;48.160;14.036;2023-05-10T03:47:30;11.27;;;10.07;;
57551;SDS011;43379;48.160;14.036;2023-05-10T03:49:56;10.33;;;9.43;;
57551;SDS011;43379;48.160;14.036;2023-05-10T03:52:22;11.07;;;10.07;;
57551;SDS011;43379;48.160;14.036;2023-05-10T03:54:47;9.77;;;8.77;;
57551;SDS011;43379;48.160;14.036;2023-05-10T03:57:13;10.40;;;9.50;;
57551;SDS011;43379;48.160;14.036;2023-05-10T03:59:39;9.93;;;9.23;;
57551;SDS011;43379;48.160;14.036;2023-05-10T04:02:04;9.23;;;8.47;;
57551;SDS011;43379;48.160;14.036;2023-05-10T04:04:30;10.20;;;9.40;;
57551;SDS011;43379;48.160;14.036;2023-05-10T04:06:55;9.93;;;9.03;;
57551;SDS011;43379;48.160;14.036;2023-05-10T04:09:21;9.33;;;8.63;;
57551;SDS011;43379;48.160;14.036;2023-05-10T04:11:47;9.13;;;8.23;;
57551;SDS011;43379;48.160;14.036;2023-05-10T04:14:12;10.87;;;9.80;;
57551;SDS011;43379;48.160;14.036;2023-05-10T04:16:38;11.20;;;10.20;;
57551;SDS011;43379;48.160;14.036;2023-05-10T04:19:04;9.13;;;8.33;;
57551;SDS011;43379;48.160;14.036;2023-05-10T04:21:29;9.73;;;8.93;;
57551;SDS011;43379;48.160;14.036;2023-05-10T04:23:55;10.47;;;9.57;;
57551;SDS011;43379;48.160;14.036;2023-05-10T04:26:21;10.13;;;9.13;;
57551;SDS011;43379;48.160;14.036;2023-05-10T04:28:47;10.50;;;8.97;;
57551;SDS011;43379;48.160;14.036;2023-05-10T04:31:12;10.57;;;9.43;;
57551;SDS011;43379;48.160;14.036;2023-05-10T04:33:38;9.23;;;8.43;;
57551;SDS011;43379;48.160;14.036;2023-05-10T04:36:04;9.40;;;8.70;;
57551;SDS011;43379;48.160;14.036;2023-05-10T04:38:30;9.50;;;8.70;;
57551;SDS011;43379;48.160;14.036;2023-05-10T04:41:08;10.63;;;8.33;;
57551;SDS011;43379;48.160;14.036;2023-05-10T04:43:35;9.97;;;9.00;;
57551;SDS011;43379;48.160;14.036;2023-05-10T04:46:02;9.77;;;8.87;;
57551;SDS011;43379;48.160;14.036;2023-05-10T04:48:27;10.50;;;9.63;;
57551;SDS011;43379;48.160;14.036;2023-05-10T04:50:53;10.17;;;9.37;;
57551;SDS011;43379;48.160;14.036;2023-05-10T04:53:19;10.37;;;9.37;;
57551;SDS011;43379;48.160;14.036;2023-05-10T04:55:45;9.97;;;9.07;;
57551;SDS011;43379;48.160;14.036;2023-05-10T04:58:11;9.87;;;9.07;;
57551;SDS011;43379;48.160;14.036;2023-05-10T05:00:37;12.13;;;11.03;;
57551;SDS011;43379;48.160;14.036;2023-05-10T05:03:03;9.43;;;8.63;;
57551;SDS011;43379;48.160;14.036;2023-05-10T05:05:28;10.37;;;9.57;;
57551;SDS011;43379;48.160;14.036;2023-05-10T05:07:54;10.10;;;9.20;;
57551;SDS011;43379;48.160;14.036;2023-05-10T05:10:19;10.07;;;9.07;;
57551;SDS011;43379;48.160;14.036;2023-05-10T05:12:45;10.17;;;8.80;;
57551;SDS011;43379;48.160;14.036;2023-05-10T05:15:11;10.40;;;9.50;;
57551;SDS011;43379;48.160;14.036;2023-05-10T05:17:36;10.83;;;9.90;;
57551;SDS011;43379;48.160;14.036;2023-05-10T05:20:02;9.53;;;8.73;;
57551;SDS011;43379;48.160;14.036;2023-05-10T05:22:28;10.57;;;9.73;;
57551;SDS011;43379;48.160;14.036;2023-05-10T05:24:57;10.90;;;9.80;;
57551;SDS011;43379;48.160;14.036;2023-05-10T05:27:27;9.87;;;9.07;;
57551;SDS011;43379;48.160;14.036;2023-05-10T05:29:53;10.37;;;9.37;;
57551;SDS011;43379;48.160;14.036;2023-05-10T05:32:19;10.93;;;9.77;;
57551;SDS011;43379;48.160;14.036;2023-05-10T05:34:45;11.97;;;10.77;;
57551;SDS011;43379;48.160;14.036;2023-05-10T05:37:18;10.40;;;9.60;;
57551;SDS011;43379;48.160;14.036;2023-05-10T05:39:45;10.60;;;9.60;;
57551;SDS011;43379;48.160;14.036;2023-05-10T05:42:11;9.80;;;9.10;;
57551;SDS011;43379;48.160;14.036;2023-05-10T05:44:37;10.90;;;9.90;;
57551;SDS011;43379;48.160;14.036;2023-05-10T05:47:03;10.13;;;9.23;;
57551;SDS011;43379;48.160;14.036;2023-05-10T05:49:29;10.43;;;9.53;;
57551;SDS011;43379;48.160;14.036;2023-05-10T05:51:58;10.50;;;9.60;;
57551;SDS011;43379;48.160;14.036;2023-05-10T05:54:25;10.97;;;9.87;;
57551;SDS011;43379;48.160;14.036;2023-05-10T05:56:53;10.53;;;9.63;;
57551;SDS011;43379;48.160;14.036;2023-05-10T05:59:19;10.93;;;9.83;;
57551;SDS011;43379;48.160;14.036;2023-05-10T06:01:45;10.87;;;9.87;;
57551;SDS011;43379;48.160;14.036;2023-05-10T06:04:11;10.77;;;9.40;;
57551;SDS011;43379;48.160;14.036;2023-05-10T06:06:37;11.30;;;10.33;;
57551;SDS011;43379;48.160;14.036;2023-05-10T06:09:03;10.87;;;9.93;;
57551;SDS011;43379;48.160;14.036;2023-05-10T06:11:28;12.33;;;11.27;;
57551;SDS011;43379;48.160;14.036;2023-05-10T06:13:55;13.67;;;12.33;;
57551;SDS011;43379;48.160;14.036;2023-05-10T06:16:21;14.10;;;12.80;;
57551;SDS011;43379;48.160;14.036;2023-05-10T06:18:47;15.80;;;14.27;;
57551;SDS011;43379;48.160;14.036;2023-05-10T06:21:12;14.27;;;12.90;;
57551;SDS011;43379;48.160;14.036;2023-05-10T06:23:38;13.90;;;12.50;;
57551;SDS011;43379;48.160;14.036;2023-05-10T06:26:04;13.27;;;12.07;;
57551;SDS011;43379;48.160;14.036;2023-05-10T06:28:29;12.40;;;11.37;;
57551;SDS011;43379;48.160;14.036;2023-05-10T06:30:57;13.30;;;12.20;;
57551;SDS011;43379;48.160;14.036;2023-05-10T06:33:22;12.63;;;11.30;;
57551;SDS011;43379;48.160;14.036;2023-05-10T06:35:48;12.40;;;11.20;;
57551;SDS011;43379;48.160;14.036;2023-05-10T06:38:14;11.60;;;10.60;;
57551;SDS011;43379;48.160;14.036;2023-05-10T06:40:43;12.40;;;11.20;;
57551;SDS011;43379;48.160;14.036;2023-05-10T06:43:09;11.10;;;10.27;;
57551;SDS011;43379;48.160;14.036;2023-05-10T06:45:35;12.63;;;11.43;;
57551;SDS011;43379;48.160;14.036;2023-05-10T06:48:00;13.10;;;11.93;;
57551;SDS011;43379;48.160;14.036;2023-05-10T06:50:26;13.23;;;12.13;;
57551;SDS011;43379;48.160;14.036;2023-05-10T06:52:52;11.63;;;10.43;;
57551;SDS011;43379;48.160;14.036;2023-05-10T06:55:17;11.80;;;10.70;;
57551;SDS011;43379;48.160;14.036;2023-05-10T06:57:43;13.00;;;11.77;;
57551;SDS011;43379;48.160;14.036;2023-05-10T07:00:09;13.60;;;12.30;;
57551;SDS011;43379;48.160;14.036;2023-05-10T07:02:35;12.70;;;11.70;;
57551;SDS011;43379;48.160;14.036;2023-05-10T07:05:01;15.20;;;13.90;;
57551;SDS011;43379;48.160;14.036;2023-05-10T07:07:27;13.67;;;12.47;;
57551;SDS011;43379;48.160;14.036;2023-05-10T07:09:52;12.20;;;11.10;;
57551;SDS011;43379;48.160;14.036;2023-05-10T07:12:18;12.27;;;11.17;;
57551;SDS011;43379;48.160;14.036;2023-05-10T07:14:44;14.30;;;13.00;;
57551;SDS011;43379;48.160;14.036;2023-05-10T07:17:10;14.10;;;12.70;;
57551;SDS011;43379;48.160;14.036;2023-05-10T07:19:36;13.63;;;12.50;;
57551;SDS011;43379;48.160;14.036;2023-05-10T07:22:01;16.13;;;12.70;;
57551;SDS011;43379;48.160;14.036;2023-05-10T07:24:27;13.37;;;12.27;;
57551;SDS011;43379;48.160;14.036;2023-05-10T07:26:53;13.10;;;11.90;;
57551;SDS011;43379;48.160;14.036;2023-05-10T07:29:19;12.80;;;11.60;;
57551;SDS011;43379;48.160;14.036;2023-05-10T07:31:44;13.23;;;12.13;;
57551;SDS011;43379;48.160;14.036;2023-05-10T07:34:10;12.50;;;11.50;;
57551;SDS011;43379;48.160;14.036;2023-05-10T07:36:35;12.50;;;11.30;;
57551;SDS011;43379;48.160;14.036;2023-05-10T07:39:01;12.80;;;11.70;;
57551;SDS011;43379;48.160;14.036;2023-05-10T07:41:27;13.10;;;11.80;;
57551;SDS011;43379;48.160;14.036;2023-05-10T07:43:53;12.90;;;11.80;;
57551;SDS011;43379;48.160;14.036;2023-05-10T07:46:18;12.80;;;11.70;;
57551;SDS011;43379;48.160;14.036;2023-05-10T07:48:46;14.23;;;12.80;;
57551;SDS011;43379;48.160;14.036;2023-05-10T07:51:12;12.60;;;11.53;;
57551;SDS011;43379;48.160;14.036;2023-05-10T07:53:38;12.90;;;11.50;;
57551;SDS011;43379;48.160;14.036;2023-05-10T07:59:15;14.13;;;12.93;;
57551;SDS011;43379;48.160;14.036;2023-05-10T08:01:42;13.33;;;12.23;;
57551;SDS011;43379;48.160;14.036;2023-05-10T08:04:08;12.57;;;11.47;;
57551;SDS011;43379;48.160;14.036;2023-05-10T08:06:33;11.27;;;10.37;;
57551;SDS011;43379;48.160;14.036;2023-05-10T08:08:59;13.87;;;12.57;;
57551;SDS011;43379;48.160;14.036;2023-05-10T08:11:25;13.80;;;12.40;;
57551;SDS011;43379;48.160;14.036;2023-05-10T08:13:52;12.50;;;11.40;;
57551;SDS011;43379;48.160;14.036;2023-05-10T08:16:18;11.87;;;10.87;;
57551;SDS011;43379;48.160;14.036;2023-05-10T08:18:44;13.33;;;11.77;;
57551;SDS011;43379;48.160;14.036;2023-05-10T08:21:12;12.47;;;11.37;;
57551;SDS011;43379;48.160;14.036;2023-05-10T08:23:41;13.27;;;12.07;;
57551;SDS011;43379;48.160;14.036;2023-05-10T08:26:08;12.67;;;11.67;;
57551;SDS011;43379;48.160;14.036;2023-05-10T08:28:34;13.90;;;12.70;;
57551;SDS011;43379;48.160;14.036;2023-05-10T08:31:00;13.57;;;12.37;;
57551;SDS011;43379;48.160;14.036;2023-05-10T08:33:25;15.10;;;13.80;;
57551;SDS011;43379;48.160;14.036;2023-05-10T08:35:51;16.37;;;14.97;;
57551;SDS011;43379;48.160;14.036;2023-05-10T08:38:17;19.33;;;17.33;;
57551;SDS011;43379;48.160;14.036;2023-05-10T08:40:43;16.93;;;15.30;;
57551;SDS011;43379;48.160;14.036;2023-05-10T08:43:10;16.70;;;15.30;;
57551;SDS011;43379;48.160;14.036;2023-05-10T08:45:37;17.30;;;15.87;;
57551;SDS011;43379;48.160;14.036;2023-05-10T08:48:10;17.80;;;16.13;;
57551;SDS011;43379;48.160;14.036;2023-05-10T08:50:37;15.17;;;13.67;;
57551;SDS011;43379;48.160;14.036;2023-05-10T08:53:05;15.07;;;13.60;;
57551;SDS011;43379;48.160;14.036;2023-05-10T08:55:35;15.73;;;14.23;;
57551;SDS011;43379;48.160;14.036;2023-05-10T08:58:03;16.27;;;14.80;;
57551;SDS011;43379;48.160;14.036;2023-05-10T09:00:30;15.97;;;14.37;;
57551;SDS011;43379;48.160;14.036;2023-05-10T09:02:57;14.40;;;13.10;;
57551;SDS011;43379;48.160;14.036;2023-05-10T09:05:23;14.17;;;12.73;;
57551;SDS011;43379;48.160;14.036;2023-05-10T09:07:49;14.13;;;12.37;;
57551;SDS011;43379;48.160;14.036;2023-05-10T09:10:15;13.90;;;12.60;;
57551;SDS011;43379;48.160;14.036;2023-05-10T09:12:41;13.90;;;12.70;;
57551;SDS011;43379;48.160;14.036;2023-05-10T09:15:09;12.73;;;11.63;;
57551;SDS011;43379;48.160;14.036;2023-05-10T09:17:35;11.00;;;10.00;;
57551;SDS011;43379;48.160;14.036;2023-05-10T09:20:04;11.03;;;10.03;;
57551;SDS011;43379;48.160;14.036;2023-05-10T09:22:30;12.13;;;10.97;;
57551;SDS011;43379;48.160;14.036;2023-05-10T09:25:06;11.80;;;10.90;;
57551;SDS011;43379;48.160;14.036;2023-05-10T09:27:34;11.60;;;10.50;;
57551;SDS011;43379;48.160;14.036;2023-05-10T09:30:00;11.20;;;10.20;;
57551;SDS011;43379;48.160;14.036;2023-05-10T09:32:36;11.40;;;10.40;;
57551;SDS011;43379;48.160;14.036;2023-05-10T09:35:10;11.93;;;10.93;;
57551;SDS011;43379;48.160;14.036;2023-05-10T09:37:44;13.83;;;12.53;;
57551;SDS011;43379;48.160;14.036;2023-05-10T09:40:18;19.00;;;12.40;;
57551;SDS011;43379;48.160;14.036;2023-05-10T09:42:54;13.17;;;12.07;;
57551;SDS011;43379;48.160;14.036;2023-05-10T09:45:24;14.40;;;12.97;;
57551;SDS011;43379;48.160;14.036;2023-05-10T09:47:54;13.60;;;12.50;;
57551;SDS011;43379;48.160;14.036;2023-05-10T09:50:22;14.50;;;13.30;;
57551;SDS011;43379;48.160;14.036;2023-05-10T09:52:49;14.67;;;13.37;;
57551;SDS011;43379;48.160;14.036;2023-05-10T09:58:04;13.90;;;12.90;;
57551;SDS011;43379;48.160;14.036;2023-05-10T10:00:35;13.20;;;12.20;;
57551;SDS011;43379;48.160;14.036;2023-05-10T10:03:02;13.37;;;12.07;;
57551;SDS011;43379;48.160;14.036;2023-05-10T10:05:28;12.83;;;11.70;;
57551;SDS011;43379;48.160;14.036;2023-05-10T10:07:58;14.23;;;13.07;;
57551;SDS011;43379;48.160;14.036;2023-05-10T10:10:25;14.23;;;13.03;;
57551;SDS011;43379;48.160;14.036;2023-05-10T10:12:52;15.23;;;13.83;;
57551;SDS011;43379;48.160;14.036;2023-05-10T10:15:19;14.47;;;13.37;;
57551;SDS011;43379;48.160;14.036;2023-05-10T10:17:46;15.20;;;13.70;;
57551;SDS011;43379;48.160;14.036;2023-05-10T10:20:13;16.63;;;15.13;;
57551;SDS011;43379;48.160;14.036;2023-05-10T10:22:39;15.93;;;14.73;;
57551;SDS011;43379;48.160;14.036;2023-05-10T10:25:05;14.83;;;13.63;;
57551;SDS011;43379;48.160;14.036;2023-05-10T10:27:34;14.70;;;13.60;;
57551;SDS011;43379;48.160;14.036;2023-05-10T10:35:52;13.87;;;12.47;;
57551;SDS011;43379;48.160;14.036;2023-05-10T10:38:19;12.83;;;11.83;;
57551;SDS011;43379;48.160;14.036;2023-05-10T10:40:46;14.30;;;13.20;;
57551;SDS011;43379;48.160;14.036;2023-05-10T10:43:25;13.93;;;12.83;;
57551;SDS011;43379;48.160;14.036;2023-05-10T10:46:11;12.27;;;11.30;;
57551;SDS011;43379;48.160;14.036;2023-05-10T10:48:47;12.60;;;11.70;;
57551;SDS011;43379;48.160;14.036;2023-05-10T10:51:13;12.83;;;11.80;;
57551;SDS011;43379;48.160;14.036;2023-05-10T10:53:40;12.40;;;11.50;;
57551;SDS011;43379;48.160;14.036;2023-05-10T10:56:12;12.40;;;11.17;;
57551;SDS011;43379;48.160;14.036;2023-05-10T10:58:40;14.00;;;13.00;;
57551;SDS011;43379;48.160;14.036;2023-05-10T11:01:16;13.33;;;12.23;;
57551;SDS011;43379;48.160;14.036;2023-05-10T11:06:44;12.40;;;11.47;;
57551;SDS011;43379;48.160;14.036;2023-05-10T11:09:10;13.53;;;12.40;;
57551;SDS011;43379;48.160;14.036;2023-05-10T11:11:52;12.70;;;11.50;;
57551;SDS011;43379;48.160;14.036;2023-05-10T11:14:22;12.60;;;11.70;;
57551;SDS011;43379;48.160;14.036;2023-05-10T11:16:49;12.93;;;11.77;;
57551;SDS011;43379;48.160;14.036;2023-05-10T11:19:16;11.57;;;10.60;;
57551;SDS011;43379;48.160;14.036;2023-05-10T11:21:46;9.10;;;8.30;;
57551;SDS011;43379;48.160;14.036;2023-05-10T11:24:20;11.23;;;10.27;;
57551;SDS011;43379;48.160;14.036;2023-05-10T11:26:49;8.10;;;7.30;;
57551;SDS011;43379;48.160;14.036;2023-05-10T11:29:16;6.50;;;5.90;;
57551;SDS011;43379;48.160;14.036;2023-05-10T11:31:43;7.70;;;7.10;;
57551;SDS011;43379;48.160;14.036;2023-05-10T11:34:10;7.50;;;6.80;;
57551;SDS011;43379;48.160;14.036;2023-05-10T11:36:37;12.03;;;11.13;;
57551;SDS011;43379;48.160;14.036;2023-05-10T11:39:03;11.90;;;10.97;;
57551;SDS011;43379;48.160;14.036;2023-05-10T11:41:30;12.27;;;11.27;;
57551;SDS011;43379;48.160;14.036;2023-05-10T11:43:57;8.90;;;8.17;;
57551;SDS011;43379;48.160;14.036;2023-05-10T11:46:23;3.97;;;3.67;;
57551;SDS011;43379;48.160;14.036;2023-05-10T11:48:52;2.43;;;2.23;;
57551;SDS011;43379;48.160;14.036;2023-05-10T11:51:22;2.50;;;2.30;;
57551;SDS011;43379;48.160;14.036;2023-05-10T11:53:50;2.23;;;2.03;;
57551;SDS011;43379;48.160;14.036;2023-05-10T11:56:18;4.37;;;2.23;;
57551;SDS011;43379;48.160;14.036;2023-05-10T11:58:52;2.57;;;2.37;;
57551;SDS011;43379;48.160;14.036;2023-05-10T12:01:20;2.70;;;2.10;;
57551;SDS011;43379;48.160;14.036;2023-05-10T12:03:46;3.47;;;3.17;;
57551;SDS011;43379;48.160;14.036;2023-05-10T12:06:12;2.80;;;2.00;;
57551;SDS011;43379;48.160;14.036;2023-05-10T12:08:43;3.80;;;3.00;;
57551;SDS011;43379;48.160;14.036;2023-05-10T12:11:11;4.47;;;3.70;;
57551;SDS011;43379;48.160;14.036;2023-05-10T12:13:42;3.40;;;2.97;;
57551;SDS011;43379;48.160;14.036;2023-05-10T12:16:21;2.93;;;2.73;;
57551;SDS011;43379;48.160;14.036;2023-05-10T12:18:51;2.80;;;2.10;;
57551;SDS011;43379;48.160;14.036;2023-05-10T12:21:18;2.60;;;2.23;;
57551;SDS011;43379;48.160;14.036;2023-05-10T12:23:45;2.57;;;2.37;;
57551;SDS011;43379;48.160;14.036;2023-05-10T12:26:12;1.90;;;1.80;;
57551;SDS011;43379;48.160;14.036;2023-05-10T12:28:38;2.07;;;1.50;;
57551;SDS011;43379;48.160;14.036;2023-05-10T12:31:05;1.50;;;1.40;;
57551;SDS011;43379;48.160;14.036;2023-05-10T12:36:08;2.07;;;1.60;;
57551;SDS011;43379;48.160;14.036;2023-05-10T12:38:41;1.90;;;1.80;;
57551;SDS011;43379;48.160;14.036;2023-05-10T12:41:17;1.80;;;1.50;;
57551;SDS011;43379;48.160;14.036;2023-05-10T12:43:43;4.20;;;1.77;;
57551;SDS011;43379;48.160;14.036;2023-05-10T12:48:37;2.23;;;1.50;;
57551;SDS011;43379;48.160;14.036;2023-05-10T12:51:05;2.23;;;1.20;;
57551;SDS011;43379;48.160;14.036;2023-05-10T12:53:34;1.73;;;1.50;;
57551;SDS011;43379;48.160;14.036;2023-05-10T12:56:00;1.97;;;1.83;;
57551;SDS011;43379;48.160;14.036;2023-05-10T12:58:26;1.80;;;1.50;;
57551;SDS011;43379;48.160;14.036;2023-05-10T13:00:52;2.37;;;1.67;;
57551;SDS011;43379;48.160;14.036;2023-05-10T13:03:18;2.23;;;2.03;;
57551;SDS011;43379;48.160;14.036;2023-05-10T13:05:44;2.13;;;1.80;;
57551;SDS011;43379;48.160;14.036;2023-05-10T13:08:09;2.47;;;1.40;;
57551;SDS011;43379;48.160;14.036;2023-05-10T13:10:35;1.40;;;1.30;;
57551;SDS011;43379;48.160;14.036;2023-05-10T13:13:01;1.70;;;1.60;;
57551;SDS011;43379;48.160;14.036;2023-05-10T13:15:27;1.97;;;1.70;;
57551;SDS011;43379;48.160;14.036;2023-05-10T13:17:53;1.57;;;1.47;;
57551;SDS011;43379;48.160;14.036;2023-05-10T13:20:19;1.80;;;1.40;;
57551;SDS011;43379;48.160;14.036;2023-05-10T13:22:45;1.60;;;1.50;;
57551;SDS011;43379;48.160;14.036;2023-05-10T13:25:11;2.70;;;1.70;;
57551;SDS011;43379;48.160;14.036;2023-05-10T13:27:38;2.20;;;1.70;;
57551;SDS011;43379;48.160;14.036;2023-05-10T13:30:05;2.00;;;1.90;;
57551;SDS011;43379;48.160;14.036;2023-05-10T13:32:31;1.67;;;1.57;;
57551;SDS011;43379;48.160;14.036;2023-05-10T13:34:58;2.17;;;1.97;;
57551;SDS011;43379;48.160;14.036;2023-05-10T13:37:23;2.13;;;1.77;;
57551;SDS011;43379;48.160;14.036;2023-05-10T13:39:49;2.60;;;2.00;;
57551;SDS011;43379;48.160;14.036;2023-05-10T13:42:15;1.90;;;1.80;;
57551;SDS011;43379;48.160;14.036;2023-05-10T13:44:40;1.93;;;1.77;;
57551;SDS011;43379;48.160;14.036;2023-05-10T13:47:06;1.90;;;1.80;;
57551;SDS011;43379;48.160;14.036;2023-05-10T13:49:32;3.80;;;1.90;;
57551;SDS011;43379;48.160;14.036;2023-05-10T13:51:58;2.43;;;1.73;;
57551;SDS011;43379;48.160;14.036;2023-05-10T13:54:30;2.40;;;2.20;;
57551;SDS011;43379;48.160;14.036;2023-05-10T13:56:56;2.47;;;2.27;;
57551;SDS011;43379;48.160;14.036;2023-05-10T13:59:22;1.87;;;1.70;;
57551;SDS011;43379;48.160;14.036;2023-05-10T14:01:47;2.00;;;1.37;;
57551;SDS011;43379;48.160;14.036;2023-05-10T14:04:13;1.67;;;1.57;;
57551;SDS011;43379;48.160;14.036;2023-05-10T14:06:39;2.17;;;1.97;;
57551;SDS011;43379;48.160;14.036;2023-05-10T14:09:05;1.93;;;1.30;;
57551;SDS011;43379;48.160;14.036;2023-05-10T14:11:30;2.43;;;1.43;;
57551;SDS011;43379;48.160;14.036;2023-05-10T14:13:56;1.40;;;1.30;;
57551;SDS011;43379;48.160;14.036;2023-05-10T14:16:22;1.60;;;1.50;;
57551;SDS011;43379;48.160;14.036;2023-05-10T14:18:47;1.87;;;1.57;;
57551;SDS011;43379;48.160;14.036;2023-05-10T14:21:13;1.70;;;1.60;;
57551;SDS011;43379;48.160;14.036;2023-05-10T14:23:39;2.33;;;1.70;;
57551;SDS011;43379;48.160;14.036;2023-05-10T14:26:04;2.20;;;2.00;;
57551;SDS011;43379;48.160;14.036;2023-05-10T14:28:31;2.60;;;2.40;;
57551;SDS011;43379;48.160;14.036;2023-05-10T14:30:57;2.67;;;2.47;;
57551;SDS011;43379;48.160;14.036;2023-05-10T14:33:23;2.83;;;2.63;;
57551;SDS011;43379;48.160;14.036;2023-05-10T14:35:49;2.63;;;2.30;;
57551;SDS011;43379;48.160;14.036;2023-05-10T14:38:16;2.33;;;2.13;;
57551;SDS011;43379;48.160;14.036;2023-05-10T14:40:41;3.07;;;2.77;;
57551;SDS011;43379;48.160;14.036;2023-05-10T14:43:08;3.33;;;3.07;;
57551;SDS011;43379;48.160;14.036;2023-05-10T14:45:33;2.00;;;1.77;;
57551;SDS011;43379;48.160;14.036;2023-05-10T14:48:00;2.73;;;2.53;;
57551;SDS011;43379;48.160;14.036;2023-05-10T14:50:26;2.23;;;2.03;;
57551;SDS011;43379;48.160;14.036;2023-05-10T14:52:51;2.53;;;2.33;;
57551;SDS011;43379;48.160;14.036;2023-05-10T14:55:17;2.83;;;2.63;;
57551;SDS011;43379;48.160;14.036;2023-05-10T14:57:43;2.63;;;2.43;;
57551;SDS011;43379;48.160;14.036;2023-05-10T15:00:09;3.40;;;2.87;;
57551;SDS011;43379;48.160;14.036;2023-05-10T15:02:35;2.97;;;2.77;;
57551;SDS011;43379;48.160;14.036;2023-05-10T15:05:01;2.70;;;2.50;;
57551;SDS011;43379;48.160;14.036;2023-05-10T15:07:27;4.47;;;2.53;;
57551;SDS011;43379;48.160;14.036;2023-05-10T15:09:52;2.50;;;2.30;;